Brandon, Mississippi
Current Conditions -  °F | °C
As of 2:54 AM on Saturday 29 Nov 2014 (Local Time) from KJAN Reporting Station
Clear Clear  
Wind Chill: 41°   Ceiling: Unl
Heat Index: 45°   Visibility: 10mi
Dew Point: 41°   Wind: 8mph
Humidity: 86%   Direction: 170°S
Pressure: 30.18"   Gusts: NA
Location:  32.27°N, 89.99°W
Report Text: KJAN 290854Z AUTO 17007KT 10SM CLR 07/05 A3018 RMK AO2 SLP220 T00720050 56005
Loading
Personal Weather Stations






























Interactive Weather Map New forecast layout! Learn more

10-Day Weather Forecast

Advertisements
Track Severe Weather on mobile